KFBG/FBG METAR and TAF weather

Enter ICAO airport designator
Station Type Date Time Source
KFBG METAR 2021/05/12 03:56 UTC NOAA

KFBG 120356Z AUTO 00000KT 10SM OVC110 17/16 A3012 RMK AO2 SLP201 T01650158 $


Station Type Date Time Source
KFBG Decoded METAR 2021/05/12 03:56 UTC NOAA

Fort Bragg / Simmons Army Airfield, NC, United States (KFBG) 35-08N 078-56W 74M
May 11, 2021 - 11:56 PM EDT / 2021.05.12 0356 UTC
Wind: Calm:0
Visibility: 10 mile(s):0
Sky conditions: overcast
Temperature: 61.7 F (16.5 C)
Dew Point: 60.4 F (15.8 C)
Relative Humidity: 95%
Pressure (altimeter): 30.12 in. Hg (1019 hPa)
ob: KFBG 120356Z AUTO 00000KT 10SM OVC110 17/16 A3012 RMK AO2 SLP201 T01650158
cycle: 4

Station Type Date Time Source
KFBG TAF 2021/05/12 01:16 UTC NOAA

TAF KFBG 120100Z 1201/1307 VRB06KT 9999 SCT080 QNH3004INS
BECMG 1211/1212 04010G15KT 9000 DZ SCT030 BKN050 OVC080 QNH3010INS
BECMG 1214/1215 03010G20KT 8000 -SHRA SCT020 OVC050 QNH3014INS
BECMG 1216/1217 03010KT 8000 -SHRA SCT020 BKN030 QNH3020INS
BECMG 1223/1300 VRB06KT 9999 NSW SCT035 BKN050 QNH3022INS TX21/1201Z TN08/1216Z

Example: see airport list